Time,TemperatureF,DewpointF,PressureIn,WindDirection,WindDirectionDegrees,WindSpeedMPH,WindSpeedGustMPH,Humidity,HourlyPrecipIn,Conditions,Clouds,dailyrainin,SoftwareType,DateUTC
2013-11-23 00:00:00,40.3,23.1,29.25,WSW,248,9.6,9.6,50,0.01,,,0.00,WUHU216HW,2013-11-23 05:00:00,
2013-11-23 00:01:00,40.3,23.1,29.25,WSW,248,9.6,9.6,50,0.01,,,0.00,WUHU216HW,2013-11-23 05:01:00,
2013-11-23 00:06:00,40.3,23.1,29.25,WSW,248,9.6,9.6,50,0.01,,,0.00,WUHU216HW,2013-11-23 05:06:00,
2013-11-23 00:30:00,38.5,14.3,29.26,West,270,5.1,5.1,37,0.01,,,0.00,WUHU216HW,2013-11-23 05:30:00,
2013-11-23 00:35:00,38.5,14.3,29.26,West,270,5.1,5.1,37,0.01,,,0.00,WUHU216HW,2013-11-23 05:35:00,
2013-11-23 00:59:00,37.6,5.5,29.26,West,270,5.6,5.6,26,0.00,,,0.00,WUHU216HW,2013-11-23 05:59:00,
2013-11-23 01:00:00,37.6,5.5,29.26,West,270,5.6,5.6,26,0.00,,,0.00,WUHU216HW,2013-11-23 06:00:00,
2013-11-23 01:05:00,37.6,5.5,29.26,West,270,5.6,5.6,26,0.00,,,0.00,WUHU216HW,2013-11-23 06:05:00,
2013-11-23 01:06:00,37.6,5.5,29.26,West,270,5.6,5.6,26,0.00,,,0.00,WUHU216HW,2013-11-23 06:06:00,
2013-11-23 01:29:00,36.9,12.3,29.28,WSW,248,6.5,6.5,36,0.00,,,0.00,WUHU216HW,2013-11-23 06:29:00,
2013-11-23 01:30:00,36.9,12.3,29.28,WSW,248,6.5,6.5,36,0.00,,,0.00,WUHU216HW,2013-11-23 06:30:00,
2013-11-23 01:31:00,36.9,12.3,29.28,WSW,248,6.5,6.5,36,0.00,,,0.00,WUHU216HW,2013-11-23 06:31:00,
2013-11-23 01:35:00,36.9,12.3,29.28,WSW,248,6.5,6.5,36,0.00,,,0.00,WUHU216HW,2013-11-23 06:35:00,
2013-11-23 01:36:00,36.9,12.3,29.28,WSW,248,6.5,6.5,36,0.00,,,0.00,WUHU216HW,2013-11-23 06:36:00,
2013-11-23 01:59:00,36.4,9.2,29.28,WNW,293,10.3,10.3,32,0.00,,,0.00,WUHU216HW,2013-11-23 06:59:00,
2013-11-23 02:00:00,36.4,9.2,29.28,WNW,293,10.3,10.3,32,0.00,,,0.00,WUHU216HW,2013-11-23 07:00:00,
2013-11-23 02:05:00,36.4,9.2,29.28,WNW,293,10.3,10.3,32,0.00,,,0.00,WUHU216HW,2013-11-23 07:05:00,
2013-11-23 02:29:00,36.0,12.7,29.29,WNW,293,16.1,16.1,38,0.00,,,0.00,WUHU216HW,2013-11-23 07:29:00,
2013-11-23 02:30:00,36.0,12.7,29.29,WNW,293,16.1,16.1,38,0.00,,,0.00,WUHU216HW,2013-11-23 07:30:00,
2013-11-23 02:35:00,36.0,12.7,29.29,WNW,293,16.1,16.1,38,0.00,,,0.00,WUHU216HW,2013-11-23 07:35:00,
2013-11-23 02:59:00,34.7,0.4,29.29,NNW,338,5.4,5.4,23,0.00,,,0.00,WUHU216HW,2013-11-23 07:59:00,
2013-11-23 03:00:00,34.7,0.4,29.29,NNW,338,5.4,5.4,23,0.00,,,0.00,WUHU216HW,2013-11-23 08:00:00,
2013-11-23 03:04:00,34.7,0.4,29.29,NNW,338,5.4,5.4,23,0.00,,,0.00,WUHU216HW,2013-11-23 08:04:00,
2013-11-23 03:05:00,34.7,0.4,29.29,NNW,338,5.4,5.4,23,0.00,,,0.00,WUHU216HW,2013-11-23 08:05:00,
2013-11-23 03:29:00,34.9,10.4,29.30,WNW,293,10.5,10.5,36,0.00,,,0.00,WUHU216HW,2013-11-23 08:29:00,
2013-11-23 03:30:00,34.9,10.4,29.30,WNW,293,10.5,10.5,36,0.00,,,0.00,WUHU216HW,2013-11-23 08:30:00,
2013-11-23 03:34:00,34.9,10.4,29.30,WNW,293,10.5,10.5,36,0.00,,,0.00,WUHU216HW,2013-11-23 08:34:00,
2013-11-23 03:35:00,34.9,10.4,29.30,WNW,293,10.5,10.5,36,0.00,,,0.00,WUHU216HW,2013-11-23 08:35:00,
2013-11-23 03:36:00,34.9,10.4,29.30,WNW,293,10.5,10.5,36,0.00,,,0.00,WUHU216HW,2013-11-23 08:36:00,
2013-11-23 10:59:00,35.5,23.4,29.27,WNW,293,9.6,9.6,61,0.00,,,0.00,WUHU216HW,2013-11-23 15:59:00,
2013-11-23 11:00:00,35.5,23.4,29.27,WNW,293,9.6,9.6,61,0.00,,,0.00,WUHU216HW,2013-11-23 16:00:00,
2013-11-23 11:04:00,35.5,23.4,29.27,WNW,293,9.6,9.6,61,0.00,,,0.00,WUHU216HW,2013-11-23 16:04:00,
2013-11-23 11:05:00,35.5,23.4,29.27,WNW,293,9.6,9.6,61,0.00,,,0.00,WUHU216HW,2013-11-23 16:05:00,
2013-11-23 11:30:00,36.2,23.7,29.25,WNW,293,8.3,8.3,60,0.00,,,0.00,WUHU216HW,2013-11-23 16:30:00,
2013-11-23 11:31:00,36.2,23.7,29.25,WNW,293,8.3,8.3,60,0.00,,,0.00,WUHU216HW,2013-11-23 16:31:00,
2013-11-23 11:35:00,36.2,23.7,29.25,WNW,293,8.3,8.3,60,0.00,,,0.00,WUHU216HW,2013-11-23 16:35:00,
2013-11-23 11:36:00,36.2,23.7,29.25,WNW,293,8.3,8.3,60,0.00,,,0.00,WUHU216HW,2013-11-23 16:36:00,
2013-11-23 11:59:00,36.2,22.9,29.22,WNW,293,3.4,3.4,58,0.00,,,0.00,WUHU216HW,2013-11-23 16:59:00,
2013-11-23 12:00:00,36.2,22.9,29.22,WNW,293,3.4,3.4,58,0.00,,,0.00,WUHU216HW,2013-11-23 17:00:00,
2013-11-23 12:04:00,36.2,22.9,29.22,WNW,293,3.4,3.4,58,0.00,,,0.00,WUHU216HW,2013-11-23 17:04:00,
2013-11-23 12:05:00,36.2,22.9,29.22,WNW,293,3.4,3.4,58,0.00,,,0.00,WUHU216HW,2013-11-23 17:05:00,
2013-11-23 12:29:00,35.3,20.7,29.21,WSW,248,14.3,14.3,55,0.00,,,0.00,WUHU216HW,2013-11-23 17:29:00,
2013-11-23 12:30:00,35.3,20.7,29.21,WSW,248,14.3,14.3,55,0.00,,,0.00,WUHU216HW,2013-11-23 17:30:00,
2013-11-23 12:34:00,35.3,20.7,29.21,WSW,248,14.3,14.3,55,0.00,,,0.00,WUHU216HW,2013-11-23 17:34:00,
2013-11-23 12:35:00,35.3,20.7,29.21,WSW,248,14.3,14.3,55,0.00,,,0.00,WUHU216HW,2013-11-23 17:35:00,
2013-11-23 12:59:00,36.0,21.4,29.19,WNW,293,6.0,6.0,55,0.00,,,0.00,WUHU216HW,2013-11-23 17:59:00,
2013-11-23 13:00:00,36.0,21.4,29.19,WNW,293,6.0,6.0,55,0.00,,,0.00,WUHU216HW,2013-11-23 18:00:00,
2013-11-23 13:05:00,36.0,21.4,29.19,WNW,293,6.0,6.0,55,0.00,,,0.00,WUHU216HW,2013-11-23 18:05:00,
2013-11-23 13:06:00,36.0,21.4,29.19,WNW,293,6.0,6.0,55,0.00,,,0.00,WUHU216HW,2013-11-23 18:06:00,
2013-11-23 13:29:00,36.4,22.1,29.16,West,270,5.6,5.6,56,0.00,,,0.00,WUHU216HW,2013-11-23 18:29:00,
2013-11-23 13:30:00,36.4,22.1,29.16,West,270,5.6,5.6,56,0.00,,,0.00,WUHU216HW,2013-11-23 18:30:00,
2013-11-23 13:32:00,36.4,22.1,29.16,West,270,5.6,5.6,56,0.00,,,0.00,WUHU216HW,2013-11-23 18:32:00,
2013-11-23 13:35:00,36.4,22.1,29.16,West,270,5.6,5.6,56,0.00,,,0.00,WUHU216HW,2013-11-23 18:35:00,
2013-11-23 13:37:00,36.4,22.1,29.16,West,270,5.6,5.6,56,0.00,,,0.00,WUHU216HW,2013-11-23 18:37:00,
2013-11-23 13:59:00,36.5,20.2,29.14,WSW,248,7.6,7.6,51,0.00,,,0.00,WUHU216HW,2013-11-23 18:59:00,
2013-11-23 14:00:00,36.5,20.2,29.14,WSW,248,7.6,7.6,51,0.00,,,0.00,WUHU216HW,2013-11-23 19:00:00,
2013-11-23 14:05:00,36.5,20.2,29.14,WSW,248,7.6,7.6,51,0.00,,,0.00,WUHU216HW,2013-11-23 19:05:00,
2013-11-23 14:06:00,36.5,20.2,29.14,WSW,248,7.6,7.6,51,0.00,,,0.00,WUHU216HW,2013-11-23 19:06:00,
2013-11-23 14:29:00,38.0,18.9,29.12,WNW,293,8.1,8.1,46,0.00,,,0.00,WUHU216HW,2013-11-23 19:29:00,
2013-11-23 14:30:00,38.0,18.9,29.12,WNW,293,8.1,8.1,46,0.00,,,0.00,WUHU216HW,2013-11-23 19:30:00,
2013-11-23 14:31:00,38.0,18.9,29.12,WNW,293,8.1,8.1,46,0.00,,,0.00,WUHU216HW,2013-11-23 19:31:00,
2013-11-23 14:34:00,38.0,18.9,29.12,WNW,293,8.1,8.1,46,0.00,,,0.00,WUHU216HW,2013-11-23 19:34:00,
2013-11-23 14:35:00,38.0,18.9,29.12,WNW,293,8.1,8.1,46,0.00,,,0.00,WUHU216HW,2013-11-23 19:35:00,
2013-11-23 14:36:00,38.0,18.9,29.12,WNW,293,8.1,8.1,46,0.00,,,0.00,WUHU216HW,2013-11-23 19:36:00,